Time;durP1;ratioP1;P1;durP2;ratioP2;P2;SDS_P1;SDS_P2;PMS_P1;PMS_P2;Temp;Humidity;BMP_temperature;BMP_pressure;BME280_temperature;BME280_humidity;BME280_pressure;Samples;Min_cycle;Max_cycle;Signal;HPM_P1;HPM_P2
2021/05/03 00:00:17;;;;;;;11.85;2.03;;;;;;;;;;5101075;28;20495;-45
2021/05/03 00:02:43;;;;;;;4.32;1.50;;;;;;;;;;5103929;28;20024;-48
2021/05/03 00:05:17;;;;;;;11.13;2.28;;;;;;;;;;5101793;28;20024;-47
2021/05/03 00:07:43;;;;;;;4.78;1.67;;;;;;;;;;5095679;28;20016;-46
2021/05/03 00:10:08;;;;;;;3.97;1.17;;;;;;;;;;5095849;28;20051;-50
2021/05/03 00:12:33;;;;;;;6.15;1.77;;;;;;;;;;5096177;28;20016;-44
2021/05/03 00:14:59;;;;;;;4.18;2.83;;;;;;;;;;5099252;28;20110;-45
2021/05/03 00:17:24;;;;;;;4.63;1.80;;;;;;;;;;5100288;28;20020;-49
2021/05/03 00:19:49;;;;;;;3.45;1.80;;;;;;;;;;5094072;28;20081;-49
2021/05/03 00:22:14;;;;;;;7.65;2.33;;;;;;;;;;5092843;28;20052;-49
2021/05/03 00:24:40;;;;;;;3.53;1.85;;;;;;;;;;5099092;28;20459;-49
2021/05/03 00:27:05;;;;;;;8.38;2.08;;;;;;;;;;5095843;28;20030;-51
2021/05/03 00:29:31;;;;;;;1.08;0.82;;;;;;;;;;5088567;28;20032;-49
2021/05/03 00:31:56;;;;;;;6.15;1.27;;;;;;;;;;5090067;28;20026;-48
2021/05/03 00:34:21;;;;;;;8.77;2.28;;;;;;;;;;5092807;28;20022;-47
2021/05/03 00:36:47;;;;;;;9.73;2.70;;;;;;;;;;5094050;28;20027;-46
2021/05/03 00:39:12;;;;;;;9.52;2.70;;;;;;;;;;5097645;28;20593;-49
2021/05/03 00:41:37;;;;;;;10.88;1.50;;;;;;;;;;5094872;28;20039;-48
2021/05/03 00:44:03;;;;;;;4.32;2.15;;;;;;;;;;5100949;28;20027;-46
2021/05/03 00:46:28;;;;;;;8.70;2.85;;;;;;;;;;5094449;28;20047;-46
2021/05/03 00:48:54;;;;;;;2.38;1.63;;;;;;;;;;5089588;28;20077;-47
2021/05/03 00:51:19;;;;;;;8.88;3.67;;;;;;;;;;5092518;28;20058;-45
2021/05/03 00:53:44;;;;;;;2.17;1.20;;;;;;;;;;5096380;28;20039;-46
2021/05/03 00:56:10;;;;;;;7.40;1.90;;;;;;;;;;5097263;28;20024;-45
2021/05/03 00:58:35;;;;;;;2.65;1.75;;;;;;;;;;5093073;28;20031;-49
2021/05/03 01:01:01;;;;;;;4.20;2.13;;;;;;;;;;5098325;28;20390;-45
2021/05/03 01:03:26;;;;;;;12.75;2.78;;;;;;;;;;5092376;28;20452;-49
2021/05/03 01:05:51;;;;;;;3.80;1.45;;;;;;;;;;5095102;28;20028;-50
2021/05/03 01:08:17;;;;;;;7.07;2.25;;;;;;;;;;5100737;28;20495;-45
2021/05/03 01:10:42;;;;;;;7.00;2.35;;;;;;;;;;5100825;28;20057;-44
2021/05/03 01:13:07;;;;;;;13.82;2.05;;;;;;;;;;5097701;28;20476;-47
2021/05/03 01:15:33;;;;;;;5.32;1.52;;;;;;;;;;5096102;28;20476;-44
2021/05/03 01:17:59;;;;;;;9.52;3.10;;;;;;;;;;5091695;28;20012;-50
2021/05/03 01:20:29;;;;;;;9.15;2.25;;;;;;;;;;5096075;28;20027;-46
2021/05/03 01:22:57;;;;;;;4.55;1.63;;;;;;;;;;5094665;28;20156;-47
2021/05/03 01:25:25;;;;;;;2.15;0.88;;;;;;;;;;5096534;28;20096;-50
2021/05/03 01:27:50;;;;;;;3.13;1.65;;;;;;;;;;5086934;28;20024;-46
2021/05/03 01:30:16;;;;;;;4.13;2.03;;;;;;;;;;5085088;28;20035;-51
2021/05/03 01:32:41;;;;;;;9.07;2.70;;;;;;;;;;5095840;28;20032;-50
2021/05/03 01:35:07;;;;;;;3.22;1.50;;;;;;;;;;5094511;28;20024;-48
2021/05/03 01:37:33;;;;;;;6.28;1.05;;;;;;;;;;5093361;28;20020;-49
2021/05/03 01:39:58;;;;;;;5.30;2.33;;;;;;;;;;5095893;28;20028;-48
2021/05/03 01:42:24;;;;;;;4.72;2.20;;;;;;;;;;5096881;28;20455;-49
2021/05/03 01:44:56;;;;;;;3.55;1.80;;;;;;;;;;5091889;28;20036;-45
2021/05/03 01:47:21;;;;;;;2.70;1.48;;;;;;;;;;5096695;28;20028;-45
2021/05/03 01:49:47;;;;;;;6.40;2.35;;;;;;;;;;5096449;28;20030;-48
2021/05/03 01:52:12;;;;;;;5.75;2.45;;;;;;;;;;5093783;28;20027;-47
2021/05/03 01:54:37;;;;;;;4.93;2.05;;;;;;;;;;5098946;28;20530;-48
2021/05/03 01:57:03;;;;;;;5.40;2.38;;;;;;;;;;5096696;28;20024;-45
2021/05/03 01:59:33;;;;;;;4.15;1.25;;;;;;;;;;5094818;28;20020;-47
2021/05/03 02:01:58;;;;;;;2.92;1.45;;;;;;;;;;5096541;28;20567;-50
2021/05/03 02:04:23;;;;;;;5.63;1.88;;;;;;;;;;5088561;28;20103;-49
2021/05/03 02:06:49;;;;;;;3.47;1.80;;;;;;;;;;5091883;28;20057;-49
2021/05/03 02:09:14;;;;;;;3.50;1.90;;;;;;;;;;5096789;28;20063;-44
2021/05/03 02:11:40;;;;;;;12.02;2.22;;;;;;;;;;5092541;28;20108;-47
2021/05/03 02:14:05;;;;;;;5.25;1.65;;;;;;;;;;5094083;28;20016;-48
2021/05/03 02:16:31;;;;;;;12.45;2.50;;;;;;;;;;5094139;28;20028;-45
2021/05/03 02:18:56;;;;;;;8.57;1.90;;;;;;;;;;5096601;28;20032;-48
2021/05/03 02:21:21;;;;;;;5.68;1.73;;;;;;;;;;5092159;28;20067;-44
2021/05/03 02:23:47;;;;;;;6.60;2.88;;;;;;;;;;5097562;28;20581;-45
2021/05/03 02:26:12;;;;;;;7.75;2.75;;;;;;;;;;5092734;28;20024;-46
2021/05/03 02:28:38;;;;;;;3.15;1.98;;;;;;;;;;5091119;28;20069;-45
2021/05/03 02:31:03;;;;;;;6.82;3.20;;;;;;;;;;5100409;28;20382;-47
2021/05/03 02:33:29;;;;;;;5.07;2.08;;;;;;;;;;5092868;28;20459;-46
2021/05/03 02:35:54;;;;;;;2.05;1.23;;;;;;;;;;5097971;28;20028;-44
2021/05/03 02:38:20;;;;;;;10.82;2.38;;;;;;;;;;5101901;28;20375;-46
2021/05/03 02:40:45;;;;;;;5.45;2.25;;;;;;;;;;5100094;28;20036;-49
2021/05/03 02:43:10;;;;;;;9.77;3.42;;;;;;;;;;5099632;28;20098;-46
2021/05/03 02:45:36;;;;;;;8.00;3.05;;;;;;;;;;5102736;28;20531;-44
2021/05/03 02:48:02;;;;;;;3.47;1.83;;;;;;;;;;5095214;28;20034;-44
2021/05/03 02:50:28;;;;;;;5.05;2.10;;;;;;;;;;5102873;28;20032;-47
2021/05/03 02:52:53;;;;;;;11.75;1.80;;;;;;;;;;5091627;28;20447;-47
2021/05/03 02:55:19;;;;;;;13.50;2.58;;;;;;;;;;5101066;28;20032;-46
2021/05/03 02:57:45;;;;;;;8.55;1.55;;;;;;;;;;5094362;28;20027;-49
2021/05/03 03:00:13;;;;;;;2.10;1.70;;;;;;;;;;5095317;28;20077;-49
2021/05/03 03:02:38;;;;;;;2.85;1.67;;;;;;;;;;5099539;28;20486;-47
2021/05/03 03:05:04;;;;;;;1.77;1.23;;;;;;;;;;5099497;28;20051;-47
2021/05/03 03:07:29;;;;;;;14.20;2.60;;;;;;;;;;5097282;28;20494;-50
2021/05/03 03:09:55;;;;;;;10.18;2.65;;;;;;;;;;5101232;28;20439;-46
2021/05/03 03:12:20;;;;;;;8.45;1.40;;;;;;;;;;5099069;28;20127;-48
2021/05/03 03:14:46;;;;;;;2.95;1.33;;;;;;;;;;5089105;28;20032;-47
2021/05/03 03:17:11;;;;;;;10.05;1.58;;;;;;;;;;5101363;28;20437;-47
2021/05/03 03:19:37;;;;;;;11.02;1.70;;;;;;;;;;5099075;28;20032;-49
2021/05/03 03:22:03;;;;;;;4.95;1.33;;;;;;;;;;5097340;28;20046;-49
2021/05/03 03:24:28;;;;;;;5.93;2.70;;;;;;;;;;5101710;28;20019;-44
2021/05/03 03:26:53;;;;;;;3.42;1.83;;;;;;;;;;5096086;28;20511;-47
2021/05/03 03:29:19;;;;;;;4.13;1.77;;;;;;;;;;5098276;28;20128;-46
2021/05/03 03:31:44;;;;;;;69.15;6.38;;;;;;;;;;5097075;28;20058;-47
2021/05/03 03:34:09;;;;;;;3.58;1.40;;;;;;;;;;5094773;28;20020;-46
2021/05/03 03:36:35;;;;;;;3.28;1.58;;;;;;;;;;5103095;28;20111;-48
2021/05/03 03:39:00;;;;;;;4.55;1.40;;;;;;;;;;5096463;28;20027;-49
2021/05/03 03:41:26;;;;;;;4.50;1.52;;;;;;;;;;5097849;28;20055;-45
2021/05/03 03:43:51;;;;;;;71.25;11.32;;;;;;;;;;5098736;28;20031;-50
2021/05/03 03:46:20;;;;;;;11.50;2.90;;;;;;;;;;5093761;28;20029;-46
2021/05/03 03:48:45;;;;;;;27.70;4.22;;;;;;;;;;5094658;28;20024;-46
2021/05/03 03:51:11;;;;;;;6.07;1.40;;;;;;;;;;5094196;28;20043;-49
2021/05/03 03:53:36;;;;;;;8.80;3.22;;;;;;;;;;5094472;28;20028;-49
2021/05/03 03:56:01;;;;;;;4.60;2.17;;;;;;;;;;5099043;28;20020;-46
2021/05/03 03:58:27;;;;;;;4.88;2.40;;;;;;;;;;5095816;28;20039;-47
2021/05/03 04:00:52;;;;;;;13.32;1.60;;;;;;;;;;5098170;28;20032;-49
2021/05/03 04:03:20;;;;;;;4.90;2.00;;;;;;;;;;5096970;28;20046;-46
2021/05/03 04:08:18;;;;;;;6.15;2.83;;;;;;;;;;5093657;28;20487;-49
2021/05/03 04:26:11;;;;;;;6.10;3.33;;;;;;;;;;5095524;28;20024;-48
2021/05/03 04:28:37;;;;;;;5.85;2.42;;;;;;;;;;5089362;28;20032;-51
2021/05/03 04:31:02;;;;;;;7.70;2.63;;;;;;;;;;5095718;28;20098;-46
2021/05/03 04:33:28;;;;;;;5.28;2.35;;;;;;;;;;5091189;28;20019;-46
2021/05/03 04:35:53;;;;;;;5.90;3.05;;;;;;;;;;5096767;28;20489;-46
2021/05/03 04:38:18;;;;;;;4.63;2.03;;;;;;;;;;5099438;28;20078;-46
2021/05/03 04:40:46;;;;;;;8.90;3.50;;;;;;;;;;5094854;28;20472;-48
2021/05/03 04:43:14;;;;;;;4.75;3.13;;;;;;;;;;5096640;28;20471;-47
2021/05/03 04:45:40;;;;;;;2.47;1.73;;;;;;;;;;5096555;28;20115;-52
2021/05/03 04:48:05;;;;;;;2.55;1.85;;;;;;;;;;5094889;28;20171;-53
2021/05/03 04:50:30;;;;;;;5.32;2.60;;;;;;;;;;5095309;28;20750;-52
2021/05/03 04:52:56;;;;;;;3.22;2.30;;;;;;;;;;5099945;28;20020;-48
2021/05/03 04:55:21;;;;;;;6.47;3.67;;;;;;;;;;5096297;28;20053;-47
2021/05/03 04:57:47;;;;;;;6.55;3.83;;;;;;;;;;5097200;28;20429;-46
2021/05/03 05:00:12;;;;;;;4.47;3.42;;;;;;;;;;5099323;28;20036;-46
2021/05/03 05:02:37;;;;;;;6.80;3.63;;;;;;;;;;5098907;28;20039;-66
2021/05/03 05:05:03;;;;;;;5.07;3.13;;;;;;;;;;5094229;28;20475;-65
2021/05/03 05:07:29;;;;;;;8.75;6.35;;;;;;;;;;5094384;28;20024;-46
2021/05/03 05:09:55;;;;;;;25.90;4.20;;;;;;;;;;5096913;28;20076;-53
2021/05/03 05:12:20;;;;;;;4.50;3.58;;;;;;;;;;5098374;28;20019;-48
2021/05/03 05:14:46;;;;;;;14.88;5.20;;;;;;;;;;5095650;28;20020;-48
2021/05/03 05:17:11;;;;;;;6.80;4.38;;;;;;;;;;5072969;28;20027;-49
2021/05/03 05:19:37;;;;;;;5.20;3.08;;;;;;;;;;5092581;28;20122;-47
2021/05/03 05:22:02;;;;;;;6.10;2.78;;;;;;;;;;5093680;28;20048;-44
2021/05/03 05:24:27;;;;;;;8.60;3.53;;;;;;;;;;5096253;28;20232;-47
2021/05/03 05:26:53;;;;;;;9.55;3.05;;;;;;;;;;5099642;28;20072;-45
2021/05/03 05:29:18;;;;;;;3.60;2.78;;;;;;;;;;5093328;28;20024;-46
2021/05/03 05:31:43;;;;;;;36.20;32.33;;;;;;;;;;5095999;28;20459;-46
2021/05/03 05:34:09;;;;;;;25.42;22.90;;;;;;;;;;5098017;28;20031;-46
2021/05/03 05:36:34;;;;;;;12.02;8.80;;;;;;;;;;5091113;28;20061;-45
2021/05/03 05:39:00;;;;;;;12.10;9.88;;;;;;;;;;5097496;28;20081;-44
2021/05/03 05:41:26;;;;;;;10.43;7.97;;;;;;;;;;5101212;28;20468;-49
2021/05/03 05:43:51;;;;;;;12.00;4.45;;;;;;;;;;5099570;28;20112;-44
2021/05/03 05:46:18;;;;;;;48.70;24.45;;;;;;;;;;5097813;28;20020;-46
2021/05/03 05:48:44;;;;;;;34.10;17.23;;;;;;;;;;5094177;28;20064;-47
2021/05/03 05:51:10;;;;;;;27.05;19.75;;;;;;;;;;5099657;28;20028;-45
2021/05/03 05:53:35;;;;;;;16.70;10.18;;;;;;;;;;5099194;28;20486;-47
2021/05/03 05:56:00;;;;;;;15.93;10.93;;;;;;;;;;5099865;28;20067;-50
2021/05/03 05:58:28;;;;;;;18.77;7.05;;;;;;;;;;5095980;28;20509;-47
2021/05/03 06:00:53;;;;;;;12.40;4.38;;;;;;;;;;5093756;28;20490;-47
2021/05/03 06:03:19;;;;;;;7.75;3.65;;;;;;;;;;5095086;28;20028;-47
2021/05/03 06:05:44;;;;;;;7.78;4.68;;;;;;;;;;5095882;28;20119;-46
2021/05/03 06:08:09;;;;;;;6.90;5.00;;;;;;;;;;5096365;28;20027;-49
2021/05/03 06:10:36;;;;;;;7.68;5.63;;;;;;;;;;5086639;28;20767;-49
2021/05/03 06:13:01;;;;;;;25.77;14.63;;;;;;;;;;5091364;28;20024;-49
2021/05/03 06:15:26;;;;;;;21.25;8.77;;;;;;;;;;5095142;28;20043;-49
2021/05/03 06:17:52;;;;;;;11.85;7.60;;;;;;;;;;5095960;28;20013;-47
2021/05/03 06:20:17;;;;;;;13.75;8.02;;;;;;;;;;5090698;28;20445;-52
2021/05/03 06:22:42;;;;;;;10.32;6.05;;;;;;;;;;5095077;28;20533;-53
2021/05/03 06:25:08;;;;;;;15.68;6.93;;;;;;;;;;5089054;28;20034;-52
2021/05/03 06:27:34;;;;;;;19.13;8.50;;;;;;;;;;5088844;28;20028;-50
2021/05/03 06:29:59;;;;;;;14.43;10.85;;;;;;;;;;5092122;28;20108;-49
2021/05/03 06:32:26;;;;;;;13.43;8.23;;;;;;;;;;5093043;28;20403;-52
2021/05/03 06:34:51;;;;;;;12.60;6.90;;;;;;;;;;5098468;28;20060;-54
2021/05/03 06:37:17;;;;;;;9.38;5.90;;;;;;;;;;5086696;28;20052;-49
2021/05/03 06:39:42;;;;;;;11.60;5.28;;;;;;;;;;5091535;28;20055;-54
2021/05/03 06:42:07;;;;;;;13.43;5.00;;;;;;;;;;5093541;28;20659;-53
2021/05/03 06:44:36;;;;;;;8.32;5.80;;;;;;;;;;5094615;28;20042;-54
2021/05/03 06:47:02;;;;;;;19.95;6.10;;;;;;;;;;5086790;28;20032;-55
2021/05/03 06:49:28;;;;;;;14.55;4.03;;;;;;;;;;5089031;28;20104;-52
2021/05/03 06:51:53;;;;;;;5.45;3.35;;;;;;;;;;5087755;28;20031;-53
2021/05/03 06:54:19;;;;;;;17.98;4.80;;;;;;;;;;5072160;28;20091;-51
2021/05/03 06:56:44;;;;;;;6.72;4.53;;;;;;;;;;5094304;28;20142;-54
2021/05/03 06:59:09;;;;;;;5.70;4.53;;;;;;;;;;5093323;28;20025;-52
2021/05/03 07:01:35;;;;;;;7.43;5.70;;;;;;;;;;5094357;28;20032;-54
2021/05/03 07:04:00;;;;;;;5.85;3.65;;;;;;;;;;5091935;28;20064;-49
2021/05/03 07:06:26;;;;;;;8.60;1.42;;;;;;;;;;5075572;28;20182;-51
2021/05/03 07:08:52;;;;;;;9.40;3.50;;;;;;;;;;5092520;28;20047;-52
2021/05/03 07:11:20;;;;;;;9.60;4.18;;;;;;;;;;5080666;28;20024;-50
2021/05/03 07:13:46;;;;;;;26.10;5.63;;;;;;;;;;5091020;28;20023;-50
2021/05/03 07:16:11;;;;;;;4.50;2.75;;;;;;;;;;5093867;28;20131;-52
2021/05/03 07:18:36;;;;;;;4.22;2.55;;;;;;;;;;5096663;28;20028;-53
2021/05/03 07:21:03;;;;;;;9.38;3.03;;;;;;;;;;5558524;22;20813;-49
2021/05/03 07:23:28;;;;;;;15.73;4.20;;;;;;;;;;5030921;28;20045;-44
2021/05/03 07:25:53;;;;;;;25.70;13.63;;;;;;;;;;5035266;28;20031;-48
2021/05/03 07:28:19;;;;;;;3.72;2.60;;;;;;;;;;5036304;28;20570;-40
2021/05/03 07:30:44;;;;;;;4.13;2.13;;;;;;;;;;5036686;28;20480;-45
2021/05/03 07:33:09;;;;;;;3.28;2.22;;;;;;;;;;5032974;28;20041;-46
2021/05/03 07:35:35;;;;;;;4.72;2.60;;;;;;;;;;5028416;28;20322;-41
2021/05/03 07:38:00;;;;;;;3.20;1.13;;;;;;;;;;5031455;28;20795;-42
2021/05/03 07:40:25;;;;;;;1.70;1.05;;;;;;;;;;5031542;28;20088;-49
2021/05/03 07:42:51;;;;;;;8.15;1.48;;;;;;;;;;5033679;28;20044;-43
2021/05/03 07:45:17;;;;;;;5.82;1.42;;;;;;;;;;5031879;28;20038;-44
2021/05/03 07:47:43;;;;;;;7.85;0.70;;;;;;;;;;5028078;28;20029;-44
2021/05/03 07:50:08;;;;;;;2.70;0.90;;;;;;;;;;5031029;28;20508;-42
2021/05/03 07:52:33;;;;;;;1.70;0.93;;;;;;;;;;5029646;28;20029;-42
2021/05/03 07:54:59;;;;;;;3.17;1.15;;;;;;;;;;5028740;28;20049;-40
2021/05/03 07:57:25;;;;;;;2.28;0.40;;;;;;;;;;5032147;28;20112;-42
2021/05/03 07:59:50;;;;;;;0.70;0.68;;;;;;;;;;5016791;28;20168;-41
2021/05/03 08:02:16;;;;;;;1.33;0.70;;;;;;;;;;5021404;28;20673;-41
2021/05/03 08:04:42;;;;;;;2.33;0.80;;;;;;;;;;5036047;28;20033;-40
2021/05/03 08:07:07;;;;;;;9.68;0.95;;;;;;;;;;5032122;28;20095;-40
2021/05/03 08:09:32;;;;;;;12.70;1.98;;;;;;;;;;5034857;28;20557;-39
2021/05/03 08:11:57;;;;;;;7.55;1.52;;;;;;;;;;5025538;28;20025;-36
2021/05/03 08:14:23;;;;;;;2.45;1.40;;;;;;;;;;5030370;28;20076;-40
2021/05/03 08:16:51;;;;;;;2.63;1.75;;;;;;;;;;5033723;28;20128;-37
2021/05/03 08:19:17;;;;;;;1.27;0.75;;;;;;;;;;5028034;28;20485;-42
2021/05/03 08:21:42;;;;;;;0.82;0.57;;;;;;;;;;5030777;28;20064;-48
2021/05/03 08:24:08;;;;;;;1.25;0.60;;;;;;;;;;5032960;28;20495;-47
2021/05/03 08:26:33;;;;;;;3.35;1.10;;;;;;;;;;5030342;28;20033;-47
2021/05/03 08:28:58;;;;;;;1.33;0.82;;;;;;;;;;5028998;28;20045;-44
2021/05/03 08:31:24;;;;;;;1.67;0.70;;;;;;;;;;5032387;28;20022;-43
2021/05/03 08:33:49;;;;;;;8.10;2.03;;;;;;;;;;5033400;28;20037;-42
2021/05/03 08:36:14;;;;;;;6.70;0.68;;;;;;;;;;5034915;28;20470;-52
2021/05/03 08:38:40;;;;;;;2.03;1.10;;;;;;;;;;5029722;28;20017;-46
2021/05/03 08:41:05;;;;;;;3.78;0.70;;;;;;;;;;5027589;28;20116;-49
2021/05/03 08:43:33;;;;;;;2.47;0.88;;;;;;;;;;5030821;28;20031;-47
2021/05/03 08:45:58;;;;;;;1.05;0.63;;;;;;;;;;5031100;28;20158;-44
2021/05/03 08:48:40;;;;;;;11.15;1.50;;;;;;;;;;5028894;28;20821;-49
2021/05/03 08:53:40;;;;;;;2.53;0.98;;;;;;;;;;5021434;28;20056;-49
2021/05/03 08:56:05;;;;;;;1.40;0.47;;;;;;;;;;5028518;28;20092;-47
2021/05/03 08:58:34;;;;;;;2.92;1.20;;;;;;;;;;5021802;28;20450;-50
2021/05/03 09:00:59;;;;;;;6.03;1.00;;;;;;;;;;5028462;28;20025;-52
2021/05/03 09:03:26;;;;;;;1.30;1.20;;;;;;;;;;5030807;28;20136;-47
2021/05/03 09:05:51;;;;;;;27.50;2.05;;;;;;;;;;5038977;28;20037;-50
2021/05/03 09:08:24;;;;;;;0.52;0.47;;;;;;;;;;5031926;28;20033;-48
2021/05/03 09:10:50;;;;;;;1.15;0.90;;;;;;;;;;5037249;28;20104;-48
2021/05/03 09:13:15;;;;;;;2.78;0.93;;;;;;;;;;5028250;28;20029;-46
2021/05/03 09:15:41;;;;;;;3.25;1.15;;;;;;;;;;5020156;28;20040;-51
2021/05/03 09:18:06;;;;;;;1.60;1.02;;;;;;;;;;5027887;28;20035;-49
2021/05/03 09:20:32;;;;;;;2.00;0.90;;;;;;;;;;5032662;28;20056;-48
2021/05/03 09:23:02;;;;;;;1.88;1.00;;;;;;;;;;5032245;28;20055;-50
2021/05/03 09:25:38;;;;;;;2.30;0.90;;;;;;;;;;5030688;28;20042;-50
2021/05/03 09:28:12;;;;;;;1.33;0.47;;;;;;;;;;5029420;28;20036;-50
2021/05/03 09:30:38;;;;;;;0.80;0.63;;;;;;;;;;5029230;28;20493;-49
2021/05/03 09:33:12;;;;;;;11.02;1.55;;;;;;;;;;5029435;28;20096;-47
2021/05/03 09:35:44;;;;;;;1.83;0.98;;;;;;;;;;5030286;28;20025;-48
2021/05/03 09:38:28;;;;;;;4.60;1.75;;;;;;;;;;5029694;28;20402;-47
2021/05/03 09:41:13;;;;;;;5.18;1.08;;;;;;;;;;5031598;28;20025;-51
2021/05/03 09:43:39;;;;;;;5.35;1.65;;;;;;;;;;5034408;28;20099;-48
2021/05/03 09:46:24;;;;;;;0.68;0.57;;;;;;;;;;5031146;28;20056;-48
2021/05/03 09:48:52;;;;;;;2.10;0.93;;;;;;;;;;5033586;28;20037;-45
2021/05/03 09:51:38;;;;;;;12.57;1.23;;;;;;;;;;5029726;28;20052;-50
2021/05/03 09:54:04;;;;;;;11.65;1.23;;;;;;;;;;5031446;28;20044;-48
2021/05/03 09:56:48;;;;;;;4.03;0.60;;;;;;;;;;5029044;28;20643;-49
2021/05/03 09:59:40;;;;;;;3.45;1.52;;;;;;;;;;5031674;28;20033;-47
2021/05/03 10:02:15;;;;;;;1.48;1.08;;;;;;;;;;5028043;28;20163;-46
2021/05/03 10:04:51;;;;;;;1.50;0.98;;;;;;;;;;5031145;28;20496;-48
2021/05/03 10:07:19;;;;;;;1.85;1.00;;;;;;;;;;5033288;28;20082;-49
2021/05/03 10:12:33;;;;;;;1.20;0.82;;;;;;;;;;5006679;28;20033;-47
2021/05/03 10:15:00;;;;;;;1.98;1.00;;;;;;;;;;5031896;28;20033;-47
2021/05/03 10:17:26;;;;;;;3.03;0.70;;;;;;;;;;5029890;28;20029;-46
2021/05/03 10:19:52;;;;;;;3.70;2.65;;;;;;;;;;5031135;28;20040;-51
2021/05/03 10:22:21;;;;;;;3.28;0.80;;;;;;;;;;5029422;28;20046;-47
2021/05/03 10:24:47;;;;;;;2.22;1.42;;;;;;;;;;5032447;28;20431;-50
2021/05/03 10:27:13;;;;;;;10.63;1.90;;;;;;;;;;5026226;28;20037;-43
2021/05/03 10:29:41;;;;;;;15.35;4.78;;;;;;;;;;5023610;28;20038;-46
2021/05/03 10:32:08;;;;;;;6.90;3.53;;;;;;;;;;5024027;28;20029;-43
2021/05/03 10:34:44;;;;;;;1.70;0.95;;;;;;;;;;5029880;28;20034;-47
2021/05/03 10:37:28;;;;;;;2.05;1.58;;;;;;;;;;5029332;28;20037;-46
2021/05/03 10:39:53;;;;;;;5.50;1.60;;;;;;;;;;5025313;28;20022;-44
2021/05/03 10:42:19;;;;;;;5.22;1.73;;;;;;;;;;5034500;28;20904;-43
2021/05/03 10:45:02;;;;;;;3.05;1.15;;;;;;;;;;5027525;28;20072;-46
2021/05/03 10:47:34;;;;;;;2.50;0.98;;;;;;;;;;5031789;28;20033;-44
2021/05/03 10:49:59;;;;;;;3.55;1.48;;;;;;;;;;5026879;28;20057;-46
2021/05/03 10:52:36;;;;;;;4.45;1.42;;;;;;;;;;5030472;28;20127;-42
2021/05/03 10:55:01;;;;;;;2.30;1.50;;;;;;;;;;5031553;28;20025;-41
2021/05/03 10:57:26;;;;;;;5.15;0.65;;;;;;;;;;5031897;28;20040;-42
2021/05/03 10:59:55;;;;;;;1.90;1.00;;;;;;;;;;5032018;28;20453;-44
2021/05/03 11:02:20;;;;;;;2.50;1.48;;;;;;;;;;5030707;28;20567;-45
2021/05/03 11:05:05;;;;;;;3.38;1.40;;;;;;;;;;5028284;28;20051;-44
2021/05/03 11:07:30;;;;;;;15.65;2.95;;;;;;;;;;5028476;28;20029;-45
2021/05/03 11:09:55;;;;;;;1.42;0.93;;;;;;;;;;5035578;28;20032;-44
2021/05/03 11:12:23;;;;;;;2.85;1.33;;;;;;;;;;5037348;28;20527;-48
2021/05/03 11:15:08;;;;;;;7.78;2.92;;;;;;;;;;5036340;28;20037;-44
2021/05/03 11:17:33;;;;;;;6.78;1.70;;;;;;;;;;5040426;28;20021;-43
2021/05/03 11:20:10;;;;;;;5.20;2.00;;;;;;;;;;5037143;28;20139;-46
2021/05/03 11:22:43;;;;;;;8.40;1.48;;;;;;;;;;5033581;28;20064;-46
2021/05/03 11:25:25;;;;;;;1.13;0.60;;;;;;;;;;5035942;28;20052;-45
2021/05/03 11:30:43;;;;;;;3.58;1.73;;;;;;;;;;5032449;28;20809;-50
2021/05/03 11:33:18;;;;;;;5.05;0.90;;;;;;;;;;5032966;28;20053;-45
2021/05/03 11:35:58;;;;;;;1.20;0.80;;;;;;;;;;5036819;28;20025;-48
2021/05/03 11:38:28;;;;;;;1.70;0.95;;;;;;;;;;5033819;28;20120;-49
2021/05/03 11:41:21;;;;;;;0.77;0.50;;;;;;;;;;5034964;28;20083;-49
2021/05/03 11:46:24;;;;;;;2.03;0.70;;;;;;;;;;5022435;28;20087;-46
2021/05/03 11:48:50;;;;;;;5.22;0.75;;;;;;;;;;5031959;28;20036;-49
2021/05/03 11:51:15;;;;;;;1.42;0.70;;;;;;;;;;5035979;28;20025;-51
2021/05/03 11:53:42;;;;;;;2.35;0.70;;;;;;;;;;5036523;28;20044;-50
2021/05/03 11:56:21;;;;;;;11.75;2.17;;;;;;;;;;5033566;28;20384;-49
2021/05/03 11:58:47;;;;;;;1.92;0.60;;;;;;;;;;5034298;28;20033;-48
2021/05/03 12:01:13;;;;;;;1.85;1.00;;;;;;;;;;5036529;28;20083;-49
2021/05/03 12:03:43;;;;;;;2.75;1.20;;;;;;;;;;5028877;28;20038;-48
2021/05/03 12:06:08;;;;;;;2.53;1.35;;;;;;;;;;5028145;28;20087;-44
2021/05/03 12:08:34;;;;;;;2.15;1.05;;;;;;;;;;5031310;28;20041;-47
2021/05/03 12:11:08;;;;;;;0.77;0.38;;;;;;;;;;5036461;28;20469;-49
2021/05/03 12:13:34;;;;;;;0.50;0.40;;;;;;;;;;5032159;28;20119;-46
2021/05/03 12:15:59;;;;;;;1.77;1.05;;;;;;;;;;5031046;28;20532;-47
2021/05/03 12:18:24;;;;;;;1.50;0.60;;;;;;;;;;5036393;28;20041;-48
2021/05/03 12:20:51;;;;;;;0.52;0.45;;;;;;;;;;5033495;28;20024;-52
2021/05/03 12:23:16;;;;;;;1.65;0.82;;;;;;;;;;5033652;28;20040;-49
2021/05/03 12:28:12;;;;;;;1.58;0.85;;;;;;;;;;5029203;28;20035;-48
2021/05/03 12:30:38;;;;;;;2.10;1.45;;;;;;;;;;5030705;28;20119;-48
2021/05/03 12:33:07;;;;;;;1.90;0.93;;;;;;;;;;5024798;28;20037;-45
2021/05/03 12:35:32;;;;;;;6.70;0.98;;;;;;;;;;5031467;28;20147;-46
2021/05/03 12:37:57;;;;;;;4.78;1.25;;;;;;;;;;5031778;28;20117;-49
2021/05/03 12:40:24;;;;;;;1.52;0.30;;;;;;;;;;5033182;28;20238;-43
2021/05/03 12:42:53;;;;;;;1.88;1.33;;;;;;;;;;5028260;28;20049;-48
2021/05/03 12:45:24;;;;;;;0.57;0.43;;;;;;;;;;5030514;28;20095;-43
2021/05/03 12:48:57;;;;;;;0.88;0.50;;;;;;;;;;5031520;28;20038;-47
2021/05/03 12:53:51;;;;;;;2.42;0.82;;;;;;;;;;5033751;28;20071;-45
2021/05/03 12:56:31;;;;;;;3.03;1.27;;;;;;;;;;5036934;28;20028;-47
2021/05/03 12:59:04;;;;;;;2.00;0.40;;;;;;;;;;5028241;28;20030;-45
2021/05/03 13:09:10;;;;;;;4.07;1.10;;;;;;;;;;5033015;28;20080;-44
2021/05/03 13:22:58;;;;;;;5.22;0.98;;;;;;;;;;5035970;28;20064;-47
2021/05/03 13:28:05;;;;;;;4.05;0.82;;;;;;;;;;5035760;28;20653;-42
2021/05/03 13:30:31;;;;;;;0.98;0.43;;;;;;;;;;5034483;28;20126;-47
2021/05/03 13:32:57;;;;;;;0.93;0.55;;;;;;;;;;5037881;28;20075;-47
2021/05/03 13:35:23;;;;;;;3.50;1.23;;;;;;;;;;5038994;28;20017;-47
2021/05/03 13:37:48;;;;;;;2.78;1.60;;;;;;;;;;5032044;28;20040;-48
2021/05/03 13:40:14;;;;;;;1.85;0.82;;;;;;;;;;5033666;28;20045;-47
2021/05/03 13:42:45;;;;;;;1.00;0.52;;;;;;;;;;5033600;28;20043;-46
2021/05/03 13:45:11;;;;;;;3.53;0.85;;;;;;;;;;5031521;28;20397;-46
2021/05/03 13:47:36;;;;;;;1.10;0.63;;;;;;;;;;5036122;28;20020;-44
2021/05/03 13:50:02;;;;;;;0.52;0.52;;;;;;;;;;5030689;28;20039;-44
2021/05/03 13:52:27;;;;;;;1.00;0.60;;;;;;;;;;5035491;28;20024;-48
2021/05/03 13:54:53;;;;;;;1.73;1.13;;;;;;;;;;5036384;28;20048;-46
2021/05/03 13:57:18;;;;;;;3.30;2.15;;;;;;;;;;5034863;28;20107;-42
2021/05/03 13:59:43;;;;;;;4.32;1.52;;;;;;;;;;5029897;28;20136;-42
2021/05/03 14:02:09;;;;;;;2.88;0.90;;;;;;;;;;5027432;28;20033;-50
2021/05/03 14:04:34;;;;;;;1.67;0.93;;;;;;;;;;5029487;28;20056;-45
2021/05/03 14:07:01;;;;;;;5.50;3.67;;;;;;;;;;5035200;28;20017;-43
2021/05/03 14:09:27;;;;;;;1.05;0.63;;;;;;;;;;5035256;28;20767;-47
2021/05/03 14:11:52;;;;;;;3.40;1.95;;;;;;;;;;5030037;28;20025;-47
2021/05/03 14:14:18;;;;;;;2.17;1.05;;;;;;;;;;5034211;28;20494;-49
2021/05/03 14:16:43;;;;;;;1.70;0.82;;;;;;;;;;5031849;28;20021;-43
2021/05/03 14:19:13;;;;;;;3.33;1.23;;;;;;;;;;5026712;28;20036;-45
2021/05/03 14:21:38;;;;;;;1.48;0.90;;;;;;;;;;5034291;28;20635;-42
2021/05/03 14:24:04;;;;;;;7.30;1.50;;;;;;;;;;5031702;28;20025;-41
2021/05/03 14:26:30;;;;;;;12.25;2.53;;;;;;;;;;5033655;28;20144;-42
2021/05/03 14:31:38;;;;;;;2.25;1.05;;;;;;;;;;5034601;28;20083;-45
2021/05/03 14:34:15;;;;;;;18.13;14.27;;;;;;;;;;5031218;28;20716;-47
2021/05/03 14:36:43;;;;;;;1.77;0.90;;;;;;;;;;5036740;28;20037;-39
2021/05/03 14:39:09;;;;;;;3.15;1.05;;;;;;;;;;5024920;28;20018;-43
2021/05/03 14:41:34;;;;;;;1.50;0.90;;;;;;;;;;5032001;28;20068;-44
2021/05/03 14:43:59;;;;;;;1.27;0.68;;;;;;;;;;5032336;28;20025;-41
2021/05/03 14:46:35;;;;;;;9.85;1.38;;;;;;;;;;5028132;28;20116;-45
2021/05/03 14:54:17;;;;;;;2.47;1.05;;;;;;;;;;5031052;28;20026;-43
2021/05/03 14:56:44;;;;;;;1.30;1.02;;;;;;;;;;5030698;28;20440;-43
2021/05/03 14:59:10;;;;;;;8.15;1.20;;;;;;;;;;5034778;28;20029;-42
2021/05/03 15:01:35;;;;;;;1.50;0.85;;;;;;;;;;5037027;28;20030;-41
2021/05/03 15:04:03;;;;;;;5.78;1.88;;;;;;;;;;5035152;28;20026;-45
2021/05/03 15:06:28;;;;;;;9.43;2.38;;;;;;;;;;5028335;28;20033;-42
2021/05/03 15:08:54;;;;;;;11.73;4.55;;;;;;;;;;5037532;28;20040;-41
2021/05/03 15:11:21;;;;;;;26.83;9.30;;;;;;;;;;5037186;28;20063;-44
2021/05/03 15:13:57;;;;;;;7.43;3.60;;;;;;;;;;5034929;28;20140;-41
2021/05/03 15:21:37;;;;;;;3.60;1.88;;;;;;;;;;5038043;28;20055;-48
2021/05/03 15:24:07;;;;;;;2.42;1.30;;;;;;;;;;5039205;28;20423;-43
2021/05/03 15:26:34;;;;;;;2.67;0.88;;;;;;;;;;5036779;28;20647;-43
2021/05/03 15:31:45;;;;;;;2.72;1.40;;;;;;;;;;5035186;28;20457;-44
2021/05/03 15:34:10;;;;;;;3.42;1.48;;;;;;;;;;5030908;28;20163;-40
2021/05/03 15:36:36;;;;;;;2.00;0.93;;;;;;;;;;5034889;28;20021;-48
2021/05/03 15:39:02;;;;;;;4.20;1.42;;;;;;;;;;5031993;28;20056;-42
2021/05/03 15:41:28;;;;;;;6.70;1.98;;;;;;;;;;5033507;28;20389;-44
2021/05/03 15:43:54;;;;;;;2.50;1.45;;;;;;;;;;5035962;28;20055;-46
2021/05/03 15:46:19;;;;;;;6.68;1.83;;;;;;;;;;5034119;28;20029;-42
2021/05/03 15:48:45;;;;;;;6.97;1.88;;;;;;;;;;5032356;28;20035;-44
2021/05/03 15:51:14;;;;;;;6.35;1.17;;;;;;;;;;5033626;28;20041;-46